createdAt,value
2018-01-27T00:00:38.671Z,87.21
2018-01-27T00:03:06.664Z,87.46
2018-01-27T00:05:32.599Z,87.65
2018-01-27T00:07:58.519Z,87.59
2018-01-27T00:10:24.485Z,87.53
2018-01-27T00:12:50.457Z,87.10
2018-01-27T00:15:19.657Z,87.08
2018-01-27T00:17:45.578Z,86.79
2018-01-27T00:20:13.508Z,86.41
2018-01-27T00:22:50.796Z,86.28
2018-01-27T00:25:16.745Z,87.09
2018-01-27T00:27:42.646Z,87.32
2018-01-27T00:30:08.566Z,87.06
2018-01-27T00:32:34.503Z,86.95
2018-01-27T00:35:00.399Z,86.56
2018-01-27T00:37:26.348Z,86.85
2018-01-27T00:39:52.282Z,86.72
2018-01-27T00:42:18.233Z,87.05
2018-01-27T00:44:44.209Z,86.98
2018-01-27T00:47:10.135Z,87.24
2018-01-27T00:49:36.089Z,87.26
2018-01-27T00:52:03.993Z,87.00
2018-01-27T00:54:29.915Z,86.49
2018-01-27T00:56:59.716Z,86.43
2018-01-27T00:59:25.632Z,86.74
2018-01-27T01:01:54.678Z,86.94
2018-01-27T01:04:20.579Z,87.28
2018-01-27T01:06:50.571Z,87.49
2018-01-27T01:09:16.502Z,87.49
2018-01-27T01:11:43.348Z,87.39
2018-01-27T01:14:09.328Z,87.36
2018-01-27T01:16:38.820Z,87.23
2018-01-27T01:19:04.778Z,87.06
2018-01-27T01:21:30.728Z,87.65
2018-01-27T01:23:56.660Z,88.31
2018-01-27T01:26:22.583Z,88.25
2018-01-27T01:28:49.261Z,88.13
2018-01-27T01:31:15.187Z,87.94
2018-01-27T01:33:43.928Z,87.22
2018-01-27T01:36:09.956Z,87.05
2018-01-27T01:38:39.314Z,87.28
2018-01-27T01:41:05.226Z,87.20
2018-01-27T01:46:34.536Z,87.94
2018-01-27T01:49:12.898Z,88.45
2018-01-27T01:51:38.837Z,88.57
2018-01-27T01:54:04.800Z,88.35
2018-01-27T01:56:30.733Z,88.20
2018-01-27T01:58:56.675Z,88.55
2018-01-27T02:01:22.586Z,88.31
2018-01-27T02:03:48.502Z,87.96
2018-01-27T02:06:14.445Z,87.64
2018-01-27T02:08:40.379Z,87.75
2018-01-27T02:11:06.315Z,87.71
2018-01-27T02:13:32.237Z,87.44
2018-01-27T02:15:58.188Z,87.16
2018-01-27T02:18:24.117Z,87.05
2018-01-27T02:20:50.035Z,86.96
2018-01-27T02:23:15.974Z,87.20
2018-01-27T02:25:41.886Z,87.36
2018-01-27T02:28:07.824Z,87.54
2018-01-27T02:30:33.723Z,87.87
2018-01-27T02:32:59.680Z,88.38
2018-01-27T02:35:25.629Z,88.36
2018-01-27T02:37:51.533Z,88.89
2018-01-27T02:40:17.456Z,89.03
2018-01-27T02:42:43.393Z,89.12
2018-01-27T02:45:09.326Z,89.25
2018-01-27T02:47:35.465Z,89.56
2018-01-27T02:50:01.430Z,89.61
2018-01-27T02:52:27.368Z,89.61
2018-01-27T02:54:53.299Z,89.79
2018-01-27T02:57:19.226Z,89.87
2018-01-27T02:59:45.181Z,89.80
2018-01-27T03:02:11.126Z,89.52
2018-01-27T03:04:37.069Z,90.53
2018-01-27T03:07:02.977Z,90.54
2018-01-27T03:09:28.892Z,90.44
2018-01-27T03:11:54.868Z,89.79
2018-01-27T03:14:20.793Z,89.62
2018-01-27T03:16:46.756Z,89.60
2018-01-27T03:19:12.685Z,89.47
2018-01-27T03:21:38.620Z,89.23
2018-01-27T03:24:04.524Z,88.98
2018-01-27T03:26:30.467Z,88.56
2018-01-27T03:28:56.380Z,88.37
2018-01-27T03:31:22.324Z,88.42
2018-01-27T03:33:49.255Z,88.23
2018-01-27T03:36:15.165Z,87.98
2018-01-27T03:38:43.822Z,88.10
2018-01-27T03:41:09.753Z,87.88
2018-01-27T03:43:38.505Z,88.07
2018-01-27T03:46:04.419Z,87.76
2018-01-27T03:48:30.360Z,87.83
2018-01-27T03:50:56.304Z,87.99
2018-01-27T03:53:22.245Z,88.10
2018-01-27T03:55:51.331Z,87.93
2018-01-27T03:58:17.259Z,87.81
2018-01-27T04:00:45.953Z,88.10
2018-01-27T04:03:11.879Z,88.32
2018-01-27T04:05:41.343Z,88.22
2018-01-27T04:08:07.246Z,88.03
2018-01-27T04:10:35.022Z,87.97
2018-01-27T04:13:00.961Z,87.68
2018-01-27T04:15:30.568Z,87.77
2018-01-27T04:17:56.494Z,87.59
2018-01-27T04:20:24.071Z,87.47
2018-01-27T04:22:50.001Z,87.54
2018-01-27T04:25:15.920Z,87.75
2018-01-27T04:27:41.878Z,87.55
2018-01-27T04:30:07.836Z,87.51
2018-01-27T04:32:36.915Z,87.47
2018-01-27T04:35:02.860Z,87.60
2018-01-27T04:37:32.240Z,87.58
2018-01-27T04:39:58.160Z,88.71
2018-01-27T04:42:25.724Z,88.78
2018-01-27T04:44:51.658Z,88.53
2018-01-27T04:47:19.965Z,88.27
2018-01-27T04:49:45.898Z,88.15
2018-01-27T04:52:15.464Z,87.86
2018-01-27T04:54:41.407Z,88.40
2018-01-27T04:57:10.150Z,89.08
2018-01-27T04:59:36.097Z,88.99
2018-01-27T05:02:02.027Z,88.75
2018-01-27T05:04:27.952Z,88.48
2018-01-27T05:06:53.896Z,87.86
2018-01-27T05:09:21.240Z,87.88
2018-01-27T05:11:47.166Z,87.90
2018-01-27T05:14:16.402Z,87.67
2018-01-27T05:16:42.336Z,87.48
2018-01-27T05:19:10.612Z,87.36
2018-01-27T05:21:36.534Z,87.24
2018-01-27T05:24:06.097Z,87.28
2018-01-27T05:26:31.999Z,87.09
2018-01-27T05:28:59.855Z,87.19
2018-01-27T05:31:25.795Z,87.00
2018-01-27T05:33:56.119Z,86.75
2018-01-27T05:36:22.040Z,86.76
2018-01-27T05:38:48.046Z,87.09
2018-01-27T05:41:13.959Z,87.03
2018-01-27T05:43:39.894Z,87.09
2018-01-27T05:46:06.527Z,86.87
2018-01-27T05:48:32.459Z,86.84
2018-01-27T05:51:01.406Z,87.18
2018-01-27T05:53:27.384Z,87.28
2018-01-27T05:55:56.791Z,87.13
2018-01-27T05:58:22.721Z,86.71
2018-01-27T06:00:50.601Z,87.10
2018-01-27T06:03:16.617Z,87.22
2018-01-27T06:05:46.482Z,87.18
2018-01-27T06:08:12.428Z,87.47
2018-01-27T06:10:41.757Z,87.45
2018-01-27T06:13:07.670Z,87.32
2018-01-27T06:15:33.607Z,86.80
2018-01-27T06:17:59.536Z,86.90
2018-01-27T06:20:25.497Z,86.99
2018-01-27T06:22:52.019Z,86.72
2018-01-27T06:25:17.936Z,86.94
2018-01-27T06:27:47.296Z,87.04
2018-01-27T06:30:13.226Z,87.21
2018-01-27T06:32:42.851Z,87.13
2018-01-27T06:35:08.792Z,87.04
2018-01-27T06:37:36.613Z,87.39
2018-01-27T06:40:02.597Z,87.47
2018-01-27T06:42:31.509Z,87.32
2018-01-27T06:44:57.481Z,87.03
2018-01-27T06:47:26.409Z,86.88
2018-01-27T06:49:52.377Z,86.73
2018-01-27T06:52:18.348Z,86.76
2018-01-27T06:54:44.276Z,87.01
2018-01-27T06:57:10.196Z,87.08
2018-01-27T06:59:38.157Z,87.11
2018-01-27T07:02:04.071Z,86.29
2018-01-27T07:04:31.894Z,86.48
2018-01-27T07:06:57.819Z,86.53
2018-01-27T07:09:26.578Z,86.35
2018-01-27T07:11:52.522Z,86.76
2018-01-27T07:14:21.856Z,87.28
2018-01-27T07:16:47.798Z,87.23
2018-01-27T07:19:17.169Z,87.39
2018-01-27T07:21:43.104Z,86.95
2018-01-27T07:24:10.648Z,87.48
2018-01-27T07:26:36.604Z,88.25
2018-01-27T07:29:02.544Z,88.67
2018-01-27T07:31:28.460Z,87.62
2018-01-27T07:33:54.384Z,88.31
2018-01-27T07:36:22.285Z,88.16
2018-01-27T07:38:48.205Z,87.80
2018-01-27T07:41:17.608Z,87.77
2018-01-27T07:43:43.550Z,87.40
2018-01-27T07:46:11.996Z,87.22
2018-01-27T07:48:37.908Z,87.07
2018-01-27T07:51:06.188Z,86.12
2018-01-27T07:53:32.119Z,85.67
2018-01-27T07:56:01.612Z,86.18
2018-01-27T07:58:27.568Z,86.65
2018-01-27T08:00:56.712Z,86.97
2018-01-27T08:03:22.635Z,87.08
2018-01-27T08:05:48.566Z,87.30
2018-01-27T08:08:14.497Z,87.42
2018-01-27T08:10:40.441Z,87.33
2018-01-27T08:13:09.510Z,87.41
2018-01-27T08:15:35.428Z,86.53
2018-01-27T08:18:02.492Z,85.79
2018-01-27T08:20:28.420Z,85.96
2018-01-27T08:22:58.168Z,85.42
2018-01-27T08:25:24.107Z,84.96
2018-01-27T08:27:53.346Z,85.33
2018-01-27T08:30:19.261Z,85.99
2018-01-27T08:32:47.149Z,86.00
2018-01-27T08:35:13.088Z,85.51
2018-01-27T08:37:42.601Z,85.72
2018-01-27T08:40:08.545Z,86.00
2018-01-27T08:42:34.461Z,86.33
2018-01-27T08:45:00.407Z,85.57
2018-01-27T08:47:28.229Z,85.23
2018-01-27T08:49:54.222Z,85.30
2018-01-27T08:52:20.146Z,84.97
2018-01-27T08:54:48.019Z,84.42
2018-01-27T08:57:13.945Z,83.98
2018-01-27T08:59:43.777Z,83.46
2018-01-27T09:02:09.764Z,83.29
2018-01-27T09:04:37.257Z,83.11
2018-01-27T09:07:03.197Z,82.49
2018-01-27T09:09:32.379Z,82.92
2018-01-27T09:11:58.315Z,82.83
2018-01-27T09:14:27.324Z,83.22
2018-01-27T09:16:53.282Z,82.93
2018-01-27T09:19:19.208Z,81.84
2018-01-27T09:21:45.166Z,78.03
2018-01-27T09:24:11.104Z,74.50
2018-01-27T09:26:38.509Z,71.76
2018-01-27T09:29:04.440Z,71.20
2018-01-27T09:31:34.114Z,71.44
2018-01-27T09:34:00.093Z,71.94
2018-01-27T09:36:27.811Z,70.17
2018-01-27T09:38:53.744Z,73.25
2018-01-27T09:41:22.119Z,75.71
2018-01-27T09:43:48.074Z,76.76
2018-01-27T09:46:18.263Z,79.10
2018-01-27T09:48:44.191Z,79.84
2018-01-27T09:51:11.812Z,79.32
2018-01-27T09:53:37.761Z,80.47
2018-01-27T09:56:03.677Z,80.98
2018-01-27T09:58:29.608Z,80.63
2018-01-27T10:00:55.546Z,79.78
2018-01-27T10:03:23.529Z,78.96
2018-01-27T10:05:49.486Z,79.11
2018-01-27T10:08:19.094Z,79.17
2018-01-27T10:10:45.033Z,78.69
2018-01-27T10:13:14.420Z,79.65
2018-01-27T10:15:40.348Z,79.56
2018-01-27T10:18:07.772Z,78.90
2018-01-27T10:20:33.717Z,78.68
2018-01-27T10:23:03.283Z,78.20
2018-01-27T10:25:29.216Z,75.90
2018-01-27T10:27:58.327Z,76.62
2018-01-27T10:30:24.264Z,78.80
2018-01-27T10:32:50.219Z,78.80
2018-01-27T10:35:16.127Z,78.68
2018-01-27T10:37:42.050Z,77.15
2018-01-27T10:40:09.605Z,75.52
2018-01-27T10:42:35.561Z,74.27
2018-01-27T10:45:04.140Z,74.94
2018-01-27T10:47:30.796Z,75.48
2018-01-27T10:49:58.540Z,75.58
2018-01-27T10:52:24.472Z,74.99
2018-01-27T10:54:53.714Z,70.07
2018-01-27T10:57:19.614Z,66.41
2018-01-27T10:59:47.355Z,64.85
2018-01-27T11:02:13.299Z,64.24
2018-01-27T11:04:42.299Z,63.31
2018-01-27T11:07:08.238Z,64.34
2018-01-27T11:09:34.185Z,61.48
2018-01-27T11:12:00.112Z,56.35
2018-01-27T11:14:26.029Z,49.83
2018-01-27T11:16:55.888Z,51.09
2018-01-27T11:19:21.799Z,52.79
2018-01-27T11:21:49.472Z,55.79
2018-01-27T11:24:15.435Z,52.68
2018-01-27T11:26:43.671Z,54.36
2018-01-27T11:29:09.588Z,53.14
2018-01-27T11:31:39.145Z,54.24
2018-01-27T11:34:05.091Z,50.45
2018-01-27T11:36:32.842Z,48.47
2018-01-27T11:38:58.787Z,49.87
2018-01-27T11:41:27.830Z,48.62
2018-01-27T11:43:53.808Z,45.81
2018-01-27T11:46:19.737Z,47.62
2018-01-27T11:48:45.671Z,45.87
2018-01-27T11:51:11.612Z,47.83
2018-01-27T11:53:40.144Z,48.25
2018-01-27T11:56:06.088Z,48.63
2018-01-27T11:58:33.977Z,46.00
2018-01-27T12:00:59.930Z,46.36
2018-01-27T12:03:29.433Z,47.59
2018-01-27T12:05:55.346Z,48.91
2018-01-27T12:08:25.193Z,50.40
2018-01-27T12:10:51.136Z,53.01
2018-01-27T12:13:18.369Z,55.13
2018-01-27T12:15:44.327Z,56.43
2018-01-27T12:18:13.345Z,57.78
2018-01-27T12:20:39.251Z,57.65
2018-01-27T12:23:05.271Z,58.86
2018-01-27T12:25:31.193Z,60.57
2018-01-27T12:27:57.128Z,60.38
2018-01-27T12:30:24.901Z,60.15
2018-01-27T12:32:50.822Z,61.69
2018-01-27T12:35:19.466Z,58.24
2018-01-27T12:37:45.388Z,62.07
2018-01-27T12:40:14.681Z,64.30
2018-01-27T12:42:40.652Z,64.24
2018-01-27T12:45:10.278Z,63.79
2018-01-27T12:47:37.878Z,65.45
2018-01-27T12:50:03.820Z,66.16
2018-01-27T12:52:29.770Z,66.77
2018-01-27T12:54:58.753Z,64.26
2018-01-27T12:57:24.689Z,66.94
2018-01-27T12:59:50.640Z,67.13
2018-01-27T13:02:16.555Z,67.22
2018-01-27T13:04:42.503Z,67.51
2018-01-27T13:07:11.806Z,67.90
2018-01-27T13:09:37.739Z,68.60
2018-01-27T13:12:04.985Z,67.51
2018-01-27T13:14:30.927Z,67.80
2018-01-27T13:17:00.205Z,67.65
2018-01-27T13:19:26.140Z,67.85
2018-01-27T13:21:55.565Z,67.48
2018-01-27T13:24:21.537Z,66.72
2018-01-27T13:26:48.954Z,67.75
2018-01-27T13:29:14.877Z,67.33
2018-01-27T13:31:44.536Z,68.09
2018-01-27T13:34:10.499Z,68.66
2018-01-27T13:36:36.400Z,67.07
2018-01-27T13:39:02.370Z,68.19
2018-01-27T13:41:28.324Z,67.85
2018-01-27T13:43:56.136Z,68.31
2018-01-27T13:46:22.086Z,67.74
2018-01-27T13:48:51.357Z,65.05
2018-01-27T13:51:17.322Z,63.51
2018-01-27T13:53:44.973Z,62.08
2018-01-27T13:56:10.924Z,60.17
2018-01-27T13:58:40.288Z,58.29
2018-01-27T14:01:06.221Z,55.81
2018-01-27T14:03:34.734Z,61.80
2018-01-27T14:06:00.669Z,61.01
2018-01-27T14:08:30.532Z,61.86
2018-01-27T14:10:56.634Z,61.05
2018-01-27T14:13:22.613Z,60.40
2018-01-27T14:15:48.533Z,58.71
2018-01-27T14:18:14.472Z,57.63
2018-01-27T14:20:40.553Z,56.63
2018-01-27T14:23:06.497Z,55.77
2018-01-27T14:25:35.320Z,55.46
2018-01-27T14:28:01.252Z,55.61
2018-01-27T14:30:30.579Z,53.71
2018-01-27T14:32:56.522Z,53.64
2018-01-27T14:35:26.092Z,52.06
2018-01-27T14:37:52.009Z,51.57
2018-01-27T14:40:19.534Z,53.53
2018-01-27T14:42:45.465Z,55.66
2018-01-27T14:45:14.025Z,56.41
2018-01-27T14:47:44.668Z,55.95
2018-01-27T14:50:10.613Z,51.38
2018-01-27T14:52:36.514Z,54.51
2018-01-27T14:55:02.502Z,53.08
2018-01-27T14:57:28.437Z,53.66
2018-01-27T14:59:54.357Z,54.09
2018-01-27T15:02:21.291Z,55.72
2018-01-27T15:04:47.243Z,55.43
2018-01-27T15:07:15.239Z,56.58
2018-01-27T15:09:41.164Z,56.19
2018-01-27T15:12:10.487Z,55.17
2018-01-27T15:14:36.411Z,52.98
2018-01-27T15:17:06.158Z,53.55
2018-01-27T15:19:32.096Z,53.16
2018-01-27T15:22:01.168Z,54.34
2018-01-27T15:24:27.064Z,54.86
2018-01-27T15:26:52.980Z,55.67
2018-01-27T15:29:18.929Z,55.48
2018-01-27T15:31:44.887Z,58.00
2018-01-27T15:34:11.655Z,59.31
2018-01-27T15:36:37.580Z,59.04
2018-01-27T15:39:06.772Z,59.38
2018-01-27T15:41:32.725Z,60.37
2018-01-27T15:44:00.388Z,60.61
2018-01-27T15:46:26.333Z,61.63
2018-01-27T15:48:56.083Z,64.26
2018-01-27T15:51:22.016Z,65.02
2018-01-27T15:53:51.137Z,65.82
2018-01-27T15:56:17.058Z,65.50
2018-01-27T15:58:44.751Z,67.21
2018-01-27T16:01:10.717Z,67.39
2018-01-27T16:03:36.676Z,68.34
2018-01-27T16:06:02.617Z,69.50
2018-01-27T16:08:28.562Z,70.01
2018-01-27T16:10:56.436Z,71.13
2018-01-27T16:13:22.346Z,71.81
2018-01-27T16:15:51.802Z,72.56
2018-01-27T16:18:21.452Z,72.77
2018-01-27T16:20:51.121Z,73.06
2018-01-27T16:23:17.067Z,72.73
2018-01-27T16:25:44.266Z,73.17
2018-01-27T16:28:10.192Z,73.99
2018-01-27T16:30:36.113Z,73.92
2018-01-27T16:33:02.056Z,73.82
2018-01-27T16:35:30.109Z,74.31
2018-01-27T16:37:56.093Z,74.79
2018-01-27T16:40:22.056Z,75.12
2018-01-27T16:42:48.012Z,75.71
2018-01-27T16:45:13.951Z,76.10
2018-01-27T16:47:43.663Z,76.25
2018-01-27T16:50:09.602Z,76.05
2018-01-27T16:52:35.586Z,76.13
2018-01-27T16:55:01.535Z,75.83
2018-01-27T16:57:27.827Z,75.91
2018-01-27T16:59:57.854Z,76.02
2018-01-27T17:02:26.926Z,76.27
2018-01-27T17:04:52.893Z,76.50
2018-01-27T17:07:22.278Z,75.96
2018-01-27T17:09:48.240Z,76.12
2018-01-27T17:12:16.038Z,76.08
2018-01-27T17:14:42.060Z,76.55
2018-01-27T17:17:08.049Z,77.30
2018-01-27T17:19:54.256Z,77.09
2018-01-27T17:22:20.232Z,77.43
2018-01-27T17:24:49.688Z,78.65
2018-01-27T17:27:15.624Z,78.37
2018-01-27T17:29:41.588Z,78.39
2018-01-27T17:32:07.559Z,78.90
2018-01-27T17:34:33.506Z,78.90
2018-01-27T17:36:59.468Z,79.68
2018-01-27T17:39:25.442Z,79.76
2018-01-27T17:41:51.504Z,79.70
2018-01-27T17:44:17.477Z,79.39
2018-01-27T17:46:43.436Z,79.09
2018-01-27T17:49:09.413Z,79.27
2018-01-27T17:51:35.409Z,79.59
2018-01-27T17:54:01.416Z,80.03
2018-01-27T17:56:27.367Z,79.86
2018-01-27T17:58:53.423Z,80.08
2018-01-27T18:01:19.386Z,80.39
2018-01-27T18:06:44.598Z,80.14
2018-01-27T18:09:10.559Z,80.21
2018-01-27T18:11:36.526Z,80.24
2018-01-27T18:14:02.511Z,80.04
2018-01-27T18:16:28.448Z,80.17
2018-01-27T18:18:54.476Z,80.16
2018-01-27T18:21:20.431Z,80.20
2018-01-27T18:23:46.399Z,80.40
2018-01-27T18:26:12.345Z,79.94
2018-01-27T18:28:38.532Z,80.00
2018-01-27T18:31:04.509Z,80.03
2018-01-27T18:33:30.458Z,80.16
2018-01-27T18:35:56.460Z,80.00
2018-01-27T18:38:22.408Z,80.05
2018-01-27T18:40:48.376Z,80.34
2018-01-27T18:43:14.382Z,80.77
2018-01-27T18:45:40.304Z,80.61
2018-01-27T18:48:06.288Z,79.92
2018-01-27T18:50:47.862Z,80.26
2018-01-27T18:53:13.844Z,80.47
2018-01-27T18:55:39.801Z,80.31
2018-01-27T18:58:05.777Z,80.52
2018-01-27T19:00:31.743Z,80.49
2018-01-27T19:02:57.749Z,80.49
2018-01-27T19:05:23.687Z,80.22
2018-01-27T19:07:49.605Z,80.21
2018-01-27T19:10:15.582Z,80.25
2018-01-27T19:12:41.566Z,80.11
2018-01-27T19:15:07.509Z,79.76
2018-01-27T19:17:33.473Z,79.47
2018-01-27T19:19:59.454Z,79.45
2018-01-27T19:22:25.472Z,79.63
2018-01-27T19:24:51.441Z,79.22
2018-01-27T19:27:21.052Z,79.24
2018-01-27T19:29:47.032Z,80.07
2018-01-27T19:32:33.228Z,80.92
2018-01-27T19:34:59.175Z,80.88
2018-01-27T19:37:25.159Z,81.06
2018-01-27T19:39:51.091Z,81.89
2018-01-27T19:42:17.078Z,82.86
2018-01-27T19:44:43.007Z,83.08
2018-01-27T19:47:08.962Z,83.46
2018-01-27T19:49:34.944Z,84.57
2018-01-27T19:52:00.946Z,84.50
2018-01-27T19:54:49.025Z,84.47
2018-01-27T19:57:15.000Z,85.38
2018-01-27T19:59:40.962Z,85.03
2018-01-27T20:02:06.943Z,84.12
2018-01-27T20:04:32.912Z,83.25
2018-01-27T20:06:58.853Z,83.19
2018-01-27T20:09:24.832Z,82.37
2018-01-27T20:11:52.441Z,82.29
2018-01-27T20:14:18.417Z,81.87
2018-01-27T20:16:44.382Z,82.11
2018-01-27T20:19:10.365Z,83.41
2018-01-27T20:21:36.300Z,83.37
2018-01-27T20:24:02.254Z,84.18
2018-01-27T20:26:28.217Z,84.25
2018-01-27T20:28:54.167Z,84.16
2018-01-27T20:31:20.144Z,83.34
2018-01-27T20:33:46.127Z,83.75
2018-01-27T20:36:12.100Z,84.18
2018-01-27T20:38:38.074Z,84.13
2018-01-27T20:41:04.021Z,84.78
2018-01-27T20:43:30.929Z,84.08
2018-01-27T20:45:56.866Z,83.21
2018-01-27T20:48:22.825Z,82.74
2018-01-27T20:50:48.832Z,82.41
2018-01-27T20:53:18.765Z,82.27
2018-01-27T20:55:46.070Z,82.11
2018-01-27T20:58:13.012Z,82.45
2018-01-27T21:00:39.020Z,82.42
2018-01-27T21:03:04.962Z,82.51
2018-01-27T21:05:31.061Z,81.47
2018-01-27T21:07:57.044Z,81.38
2018-01-27T21:10:25.978Z,82.71
2018-01-27T21:12:53.148Z,83.21
2018-01-27T21:15:19.106Z,84.26
2018-01-27T21:17:45.059Z,84.59
2018-01-27T21:20:14.144Z,84.80
2018-01-27T21:22:40.121Z,85.23
2018-01-27T21:25:09.118Z,84.73
2018-01-27T21:27:35.179Z,83.49
2018-01-27T21:30:03.419Z,82.89
2018-01-27T21:32:29.394Z,82.49
2018-01-27T21:34:55.360Z,82.20
2018-01-27T21:37:31.814Z,82.55
2018-01-27T21:39:57.788Z,82.67
2018-01-27T21:42:25.401Z,82.07
2018-01-27T21:44:51.375Z,81.76
2018-01-27T21:47:20.720Z,82.17
2018-01-27T21:49:46.653Z,82.51
2018-01-27T21:52:14.809Z,84.29
2018-01-27T21:54:40.777Z,84.41
2018-01-27T21:57:10.658Z,85.82
2018-01-27T21:59:43.540Z,89.25
2018-01-27T22:02:09.492Z,90.25
2018-01-27T22:04:35.423Z,89.32
2018-01-27T22:07:01.404Z,88.67
2018-01-27T22:09:27.398Z,88.04
2018-01-27T22:11:53.353Z,87.95
2018-01-27T22:14:19.336Z,87.48
2018-01-27T22:16:48.288Z,87.36
2018-01-27T22:19:14.245Z,88.21
2018-01-27T22:21:40.288Z,88.37
2018-01-27T22:24:06.245Z,87.76
2018-01-27T22:26:32.227Z,86.62
2018-01-27T22:29:01.704Z,85.24
2018-01-27T22:31:27.684Z,84.26
2018-01-27T22:33:54.549Z,83.91
2018-01-27T22:36:20.502Z,84.14
2018-01-27T22:38:49.947Z,84.24
2018-01-27T22:41:15.924Z,83.69
2018-01-27T22:43:45.239Z,83.05
2018-01-27T22:46:11.182Z,83.74
2018-01-27T22:48:38.934Z,84.06
2018-01-27T22:51:04.923Z,84.37
2018-01-27T22:53:34.228Z,85.23
2018-01-27T22:56:00.225Z,86.17
2018-01-27T22:58:26.272Z,86.23
2018-01-27T23:00:58.536Z,86.47
2018-01-27T23:03:24.589Z,86.54
2018-01-27T23:05:50.601Z,87.35
2018-01-27T23:08:16.610Z,87.62
2018-01-27T23:10:42.597Z,87.11
2018-01-27T23:13:08.610Z,87.81
2018-01-27T23:18:30.057Z,87.04
2018-01-27T23:20:55.984Z,85.67
2018-01-27T23:23:21.940Z,86.69
2018-01-27T23:25:47.843Z,86.14
2018-01-27T23:28:13.767Z,86.14
2018-01-27T23:30:39.749Z,86.18
2018-01-27T23:33:05.693Z,88.43
2018-01-27T23:35:31.675Z,89.62
2018-01-27T23:37:57.591Z,89.14
2018-01-27T23:40:23.513Z,86.40
2018-01-27T23:42:49.425Z,84.82
2018-01-27T23:45:15.397Z,84.50
2018-01-27T23:47:43.697Z,84.70
2018-01-27T23:50:09.705Z,85.18
2018-01-27T23:52:36.691Z,86.47
2018-01-27T23:55:04.346Z,85.77
2018-01-27T23:57:34.447Z,85.44
